sensor_id;sensor_type;location;lat;lon;timestamp;pressure;altitude;pressure_sealevel;temperature;humidity
12949;BME280;6539;49.476;8.484;2022-12-07T00:01:38;100732.38;;;7.74;68.06
12949;BME280;6539;49.476;8.484;2022-12-07T00:04:10;100733.56;;;7.77;67.99
12949;BME280;6539;49.476;8.484;2022-12-07T00:06:40;100728.50;;;7.79;67.76
12949;BME280;6539;49.476;8.484;2022-12-07T00:09:11;100718.75;;;7.78;67.88
12949;BME280;6539;49.476;8.484;2022-12-07T00:11:40;100720.69;;;7.77;67.94
12949;BME280;6539;49.476;8.484;2022-12-07T00:14:14;100724.63;;;7.80;67.91
12949;BME280;6539;49.476;8.484;2022-12-07T00:16:44;100728.53;;;7.82;67.74
12949;BME280;6539;49.476;8.484;2022-12-07T00:19:14;100723.88;;;7.83;67.82
12949;BME280;6539;49.476;8.484;2022-12-07T00:21:45;100721.91;;;7.83;67.58
12949;BME280;6539;49.476;8.484;2022-12-07T00:24:11;100723.88;;;7.83;67.51
12949;BME280;6539;49.476;8.484;2022-12-07T00:26:44;100722.66;;;7.80;66.86
12949;BME280;6539;49.476;8.484;2022-12-07T00:29:20;100708.63;;;7.82;67.12
12949;BME280;6539;49.476;8.484;2022-12-07T00:31:47;100705.13;;;7.85;67.20
12949;BME280;6539;49.476;8.484;2022-12-07T00:34:21;100700.47;;;7.89;66.54
12949;BME280;6539;49.476;8.484;2022-12-07T00:36:50;100705.91;;;7.85;66.98
12949;BME280;6539;49.476;8.484;2022-12-07T00:39:21;100702.72;;;7.76;66.21
12949;BME280;6539;49.476;8.484;2022-12-07T00:41:47;100699.53;;;7.67;66.78
12949;BME280;6539;49.476;8.484;2022-12-07T00:44:15;100708.53;;;7.67;66.92
12949;BME280;6539;49.476;8.484;2022-12-07T00:46:41;100706.94;;;7.70;67.49
12949;BME280;6539;49.476;8.484;2022-12-07T00:49:07;100707.41;;;7.76;67.43
12949;BME280;6539;49.476;8.484;2022-12-07T00:51:33;100711.28;;;7.71;67.32
12949;BME280;6539;49.476;8.484;2022-12-07T00:54:03;100712.06;;;7.72;67.48
12949;BME280;6539;49.476;8.484;2022-12-07T00:56:29;100709.75;;;7.74;67.52
12949;BME280;6539;49.476;8.484;2022-12-07T00:59:02;100711.28;;;7.75;67.52
12949;BME280;6539;49.476;8.484;2022-12-07T01:01:32;100701.84;;;7.65;66.85
12949;BME280;6539;49.476;8.484;2022-12-07T01:03:58;100708.84;;;7.62;67.07
12949;BME280;6539;49.476;8.484;2022-12-07T01:06:27;100711.91;;;7.54;67.60
12949;BME280;6539;49.476;8.484;2022-12-07T01:08:56;100709.59;;;7.59;67.95
12949;BME280;6539;49.476;8.484;2022-12-07T01:11:25;100708.44;;;7.60;67.98
12949;BME280;6539;49.476;8.484;2022-12-07T01:13:55;100705.66;;;7.53;67.38
12949;BME280;6539;49.476;8.484;2022-12-07T01:16:28;100709.59;;;7.59;67.89
12949;BME280;6539;49.476;8.484;2022-12-07T01:18:57;100704.53;;;7.61;67.75
12949;BME280;6539;49.476;8.484;2022-12-07T01:21:28;100708.84;;;7.62;67.64
12949;BME280;6539;49.476;8.484;2022-12-07T01:23:57;100707.28;;;7.61;67.07
12949;BME280;6539;49.476;8.484;2022-12-07T01:26:25;100697.47;;;7.53;67.20
12949;BME280;6539;49.476;8.484;2022-12-07T01:28:53;100705.66;;;7.57;67.45
12949;BME280;6539;49.476;8.484;2022-12-07T01:31:25;100693.03;;;7.42;67.42
12949;BME280;6539;49.476;8.484;2022-12-07T01:33:55;100698.16;;;7.43;67.95
12949;BME280;6539;49.476;8.484;2022-12-07T01:38:59;100694.19;;;7.37;68.66
12949;BME280;6539;49.476;8.484;2022-12-07T01:41:37;100694.53;;;7.32;68.97
12949;BME280;6539;49.476;8.484;2022-12-07T01:46:37;100711.72;;;7.36;69.19
12949;BME280;6539;49.476;8.484;2022-12-07T01:49:33;100710.91;;;7.29;69.24
12949;BME280;6539;49.476;8.484;2022-12-07T01:54:56;100709.75;;;7.33;69.55
12949;BME280;6539;49.476;8.484;2022-12-07T01:57:25;100708.19;;;7.32;69.47
12949;BME280;6539;49.476;8.484;2022-12-07T01:59:57;100705.84;;;7.31;69.33
12949;BME280;6539;49.476;8.484;2022-12-07T02:02:36;100710.13;;;7.32;69.73
12949;BME280;6539;49.476;8.484;2022-12-07T02:05:06;100708.53;;;7.27;69.57
12949;BME280;6539;49.476;8.484;2022-12-07T02:07:36;100704.97;;;7.23;69.69
12949;BME280;6539;49.476;8.484;2022-12-07T02:10:18;100700.28;;;7.20;69.81
12949;BME280;6539;49.476;8.484;2022-12-07T02:13:14;100704.22;;;7.26;69.86
12949;BME280;6539;49.476;8.484;2022-12-07T02:18:58;100691.31;;;7.23;69.63
12949;BME280;6539;49.476;8.484;2022-12-07T02:21:53;100700.56;;;7.12;70.38
12949;BME280;6539;49.476;8.484;2022-12-07T02:30:15;100650.16;;;6.99;70.52
12949;BME280;6539;49.476;8.484;2022-12-07T02:38:20;100676.97;;;6.93;70.56
12949;BME280;6539;49.476;8.484;2022-12-07T02:43:35;100690.72;;;7.04;70.69
12949;BME280;6539;49.476;8.484;2022-12-07T02:46:15;100693.13;;;7.09;69.78
12949;BME280;6539;49.476;8.484;2022-12-07T02:48:43;100682.53;;;7.04;69.81
12949;BME280;6539;49.476;8.484;2022-12-07T02:51:10;100684.53;;;7.07;70.01
12949;BME280;6539;49.476;8.484;2022-12-07T02:53:37;100684.16;;;7.08;69.62
12949;BME280;6539;49.476;8.484;2022-12-07T02:56:44;100681.00;;;7.06;69.70
12949;BME280;6539;49.476;8.484;2022-12-07T03:02:15;100672.50;;;7.15;69.63
12949;BME280;6539;49.476;8.484;2022-12-07T03:05:00;100675.22;;;7.11;69.96
12949;BME280;6539;49.476;8.484;2022-12-07T03:07:46;100668.59;;;7.12;69.58
12949;BME280;6539;49.476;8.484;2022-12-07T03:10:28;100665.03;;;7.08;69.21
12949;BME280;6539;49.476;8.484;2022-12-07T03:19:02;100659.88;;;7.00;68.51
12949;BME280;6539;49.476;8.484;2022-12-07T03:21:40;100658.34;;;6.99;68.33
12949;BME280;6539;49.476;8.484;2022-12-07T03:24:20;100655.84;;;6.86;68.58
12949;BME280;6539;49.476;8.484;2022-12-07T03:26:53;100652.69;;;6.81;69.23
12949;BME280;6539;49.476;8.484;2022-12-07T03:29:32;100653.53;;;6.88;69.22
12949;BME280;6539;49.476;8.484;2022-12-07T03:32:08;100651.19;;;6.90;68.66
12949;BME280;6539;49.476;8.484;2022-12-07T03:34:47;100651.91;;;6.84;69.01
12949;BME280;6539;49.476;8.484;2022-12-07T03:37:33;100639.47;;;6.86;69.14
12949;BME280;6539;49.476;8.484;2022-12-07T03:40:25;100637.63;;;6.98;69.04
12949;BME280;6539;49.476;8.484;2022-12-07T03:42:55;100634.50;;;6.96;68.68
12949;BME280;6539;49.476;8.484;2022-12-07T03:45:39;100634.94;;;7.01;69.05
12949;BME280;6539;49.476;8.484;2022-12-07T03:48:26;100630.31;;;7.05;69.17
12949;BME280;6539;49.476;8.484;2022-12-07T03:51:21;100633.88;;;7.09;68.92
12949;BME280;6539;49.476;8.484;2022-12-07T03:56:36;100643.66;;;7.14;67.96
12949;BME280;6539;49.476;8.484;2022-12-07T03:59:03;100646.41;;;7.14;68.17
12949;BME280;6539;49.476;8.484;2022-12-07T04:01:32;100636.59;;;7.09;68.19
12949;BME280;6539;49.476;8.484;2022-12-07T04:03:58;100628.00;;;7.07;68.73
12949;BME280;6539;49.476;8.484;2022-12-07T04:06:23;100641.16;;;6.98;68.98
12949;BME280;6539;49.476;8.484;2022-12-07T04:08:49;100633.78;;;7.02;68.72
12949;BME280;6539;49.476;8.484;2022-12-07T04:11:15;100630.28;;;7.02;68.83
12949;BME280;6539;49.476;8.484;2022-12-07T04:13:41;100639.25;;;7.02;69.25
12949;BME280;6539;49.476;8.484;2022-12-07T04:16:25;100635.00;;;7.08;69.00
12949;BME280;6539;49.476;8.484;2022-12-07T04:18:53;100636.94;;;7.04;68.30
12949;BME280;6539;49.476;8.484;2022-12-07T04:21:23;100629.03;;;6.96;68.94
12949;BME280;6539;49.476;8.484;2022-12-07T04:23:49;100636.03;;;6.93;68.91
12949;BME280;6539;49.476;8.484;2022-12-07T04:26:14;100636.44;;;6.95;68.57
12949;BME280;6539;49.476;8.484;2022-12-07T04:28:41;100642.31;;;6.97;68.71
12949;BME280;6539;49.476;8.484;2022-12-07T04:31:07;100639.66;;;7.04;68.73
12949;BME280;6539;49.476;8.484;2022-12-07T04:33:35;100645.97;;;7.12;68.99
12949;BME280;6539;49.476;8.484;2022-12-07T04:36:03;100648.31;;;7.13;68.65
12949;BME280;6539;49.476;8.484;2022-12-07T04:38:31;100647.53;;;7.13;69.20
12949;BME280;6539;49.476;8.484;2022-12-07T04:40:59;100649.03;;;7.07;69.30
12949;BME280;6539;49.476;8.484;2022-12-07T04:43:32;100633.94;;;6.79;70.47
12949;BME280;6539;49.476;8.484;2022-12-07T04:45:57;100632.06;;;6.87;70.84
12949;BME280;6539;49.476;8.484;2022-12-07T04:48:23;100631.34;;;6.90;71.51
12949;BME280;6539;49.476;8.484;2022-12-07T04:50:51;100634.34;;;6.81;72.32
12949;BME280;6539;49.476;8.484;2022-12-07T04:53:19;100639.84;;;6.85;71.94
12949;BME280;6539;49.476;8.484;2022-12-07T04:55:46;100627.34;;;6.80;72.37
12949;BME280;6539;49.476;8.484;2022-12-07T04:58:15;100632.38;;;6.78;72.25
12949;BME280;6539;49.476;8.484;2022-12-07T05:00:44;100631.50;;;6.71;71.85
12949;BME280;6539;49.476;8.484;2022-12-07T05:03:14;100631.91;;;6.73;72.61
12949;BME280;6539;49.476;8.484;2022-12-07T05:05:41;100629.19;;;6.73;72.57
12949;BME280;6539;49.476;8.484;2022-12-07T05:08:07;100622.50;;;6.67;72.48
12949;BME280;6539;49.476;8.484;2022-12-07T05:10:33;100620.47;;;6.60;72.43
12949;BME280;6539;49.476;8.484;2022-12-07T05:12:59;100622.88;;;6.65;73.10
12949;BME280;6539;49.476;8.484;2022-12-07T05:15:30;100619.66;;;6.56;73.44
12949;BME280;6539;49.476;8.484;2022-12-07T05:17:58;100627.53;;;6.65;73.36
12949;BME280;6539;49.476;8.484;2022-12-07T05:20:24;100622.16;;;6.68;73.38
12949;BME280;6539;49.476;8.484;2022-12-07T05:22:52;100624.41;;;6.63;73.63
12949;BME280;6539;49.476;8.484;2022-12-07T05:25:17;100626.31;;;6.59;73.83
12949;BME280;6539;49.476;8.484;2022-12-07T05:27:46;100622.84;;;6.62;73.81
12949;BME280;6539;49.476;8.484;2022-12-07T05:30:14;100621.34;;;6.68;73.58
12949;BME280;6539;49.476;8.484;2022-12-07T05:32:42;100615.94;;;6.71;73.70
12949;BME280;6539;49.476;8.484;2022-12-07T05:35:08;100613.88;;;6.61;73.56
12949;BME280;6539;49.476;8.484;2022-12-07T05:37:36;100620.44;;;6.57;73.30
12949;BME280;6539;49.476;8.484;2022-12-07T05:40:06;100618.84;;;6.52;73.52
12949;BME280;6539;49.476;8.484;2022-12-07T05:42:37;100622.84;;;6.62;73.75
12949;BME280;6539;49.476;8.484;2022-12-07T05:45:03;100615.41;;;6.59;73.63
12949;BME280;6539;49.476;8.484;2022-12-07T05:47:29;100620.16;;;6.65;73.68
12949;BME280;6539;49.476;8.484;2022-12-07T05:49:57;100619.28;;;6.58;74.03
12949;BME280;6539;49.476;8.484;2022-12-07T05:52:28;100632.19;;;6.61;74.28
12949;BME280;6539;49.476;8.484;2022-12-07T05:54:54;100626.03;;;6.67;74.58
12949;BME280;6539;49.476;8.484;2022-12-07T05:57:22;100627.63;;;6.72;74.75
12949;BME280;6539;49.476;8.484;2022-12-07T05:59:48;100629.31;;;6.83;74.40
12949;BME280;6539;49.476;8.484;2022-12-07T06:02:16;100627.75;;;6.86;74.12
12949;BME280;6539;49.476;8.484;2022-12-07T06:04:45;100627.41;;;6.87;74.25
12949;BME280;6539;49.476;8.484;2022-12-07T06:07:16;100632.50;;;6.89;74.01
12949;BME280;6539;49.476;8.484;2022-12-07T06:09:42;100625.91;;;6.93;73.37
12949;BME280;6539;49.476;8.484;2022-12-07T06:12:11;100633.31;;;6.93;72.86
12949;BME280;6539;49.476;8.484;2022-12-07T06:14:58;100631.78;;;6.96;72.58
12949;BME280;6539;49.476;8.484;2022-12-07T06:17:24;100633.69;;;6.91;72.81
12949;BME280;6539;49.476;8.484;2022-12-07T06:19:50;100644.25;;;6.97;72.76
12949;BME280;6539;49.476;8.484;2022-12-07T06:22:17;100634.50;;;6.96;72.65
12949;BME280;6539;49.476;8.484;2022-12-07T06:24:43;100636.41;;;6.91;72.68
12949;BME280;6539;49.476;8.484;2022-12-07T06:27:12;100635.63;;;6.91;72.82
12949;BME280;6539;49.476;8.484;2022-12-07T06:29:42;100630.16;;;6.91;73.08
12949;BME280;6539;49.476;8.484;2022-12-07T06:32:10;100630.97;;;6.95;73.02
12949;BME280;6539;49.476;8.484;2022-12-07T06:34:37;100634.19;;;7.01;72.72
12949;BME280;6539;49.476;8.484;2022-12-07T06:37:03;100632.91;;;6.91;72.69
12949;BME280;6539;49.476;8.484;2022-12-07T06:39:30;100638.66;;;6.82;72.37
12949;BME280;6539;49.476;8.484;2022-12-07T06:41:57;100636.00;;;6.89;72.62
12949;BME280;6539;49.476;8.484;2022-12-07T06:44:26;100650.00;;;6.88;72.48
12949;BME280;6539;49.476;8.484;2022-12-07T06:46:57;100634.47;;;6.92;72.09
12949;BME280;6539;49.476;8.484;2022-12-07T06:49:23;100642.66;;;6.92;72.29
12949;BME280;6539;49.476;8.484;2022-12-07T06:51:51;100640.69;;;6.89;72.07
12949;BME280;6539;49.476;8.484;2022-12-07T06:54:17;100634.69;;;6.76;72.56
12949;BME280;6539;49.476;8.484;2022-12-07T06:56:53;100635.41;;;6.70;73.16
12949;BME280;6539;49.476;8.484;2022-12-07T06:59:18;100645.19;;;6.74;73.21
12949;BME280;6539;49.476;8.484;2022-12-07T07:01:44;100647.22;;;6.81;73.00
12949;BME280;6539;49.476;8.484;2022-12-07T07:04:12;100640.25;;;6.87;72.64
12949;BME280;6539;49.476;8.484;2022-12-07T07:06:38;100647.34;;;6.91;72.52
12949;BME280;6539;49.476;8.484;2022-12-07T07:09:03;100649.28;;;6.91;72.09
12949;BME280;6539;49.476;8.484;2022-12-07T07:11:29;100646.22;;;6.96;72.29
12949;BME280;6539;49.476;8.484;2022-12-07T07:13:57;100647.72;;;6.90;72.17
12949;BME280;6539;49.476;8.484;2022-12-07T07:16:29;100648.13;;;6.92;72.54
12949;BME280;6539;49.476;8.484;2022-12-07T07:18:56;100652.44;;;6.97;72.55
12949;BME280;6539;49.476;8.484;2022-12-07T07:21:22;100651.16;;;6.83;72.88
12949;BME280;6539;49.476;8.484;2022-12-07T07:23:48;100649.53;;;6.79;73.64
12949;BME280;6539;49.476;8.484;2022-12-07T07:26:14;100654.69;;;6.87;73.62
12949;BME280;6539;49.476;8.484;2022-12-07T07:28:40;100661.31;;;6.86;73.11
12949;BME280;6539;49.476;8.484;2022-12-07T07:31:06;100659.03;;;6.92;72.89
12949;BME280;6539;49.476;8.484;2022-12-07T07:33:34;100668.88;;;7.00;72.70
12949;BME280;6539;49.476;8.484;2022-12-07T07:36:02;100658.75;;;7.04;72.38
12949;BME280;6539;49.476;8.484;2022-12-07T07:38:30;100654.34;;;6.92;72.55
12949;BME280;6539;49.476;8.484;2022-12-07T07:40:58;100654.03;;;6.98;72.56
12949;BME280;6539;49.476;8.484;2022-12-07T07:43:28;100658.34;;;7.02;72.32
12949;BME280;6539;49.476;8.484;2022-12-07T07:45:54;100655.22;;;7.00;72.59
12949;BME280;6539;49.476;8.484;2022-12-07T07:48:23;100658.75;;;7.04;72.48
12949;BME280;6539;49.476;8.484;2022-12-07T07:50:51;100663.84;;;7.06;72.70
12949;BME280;6539;49.476;8.484;2022-12-07T07:53:16;100668.47;;;7.02;72.70
12949;BME280;6539;49.476;8.484;2022-12-07T07:55:56;100666.22;;;7.07;72.62
12949;BME280;6539;49.476;8.484;2022-12-07T07:58:27;100670.09;;;7.06;73.04
12949;BME280;6539;49.476;8.484;2022-12-07T08:00:56;100666.09;;;6.97;73.38
12949;BME280;6539;49.476;8.484;2022-12-07T08:03:21;100677.06;;;7.00;73.18
12949;BME280;6539;49.476;8.484;2022-12-07T08:05:54;100669.28;;;7.06;73.34
12949;BME280;6539;49.476;8.484;2022-12-07T08:08:22;100681.44;;;7.12;72.71
12949;BME280;6539;49.476;8.484;2022-12-07T08:10:48;100679.16;;;7.14;72.92
12949;BME280;6539;49.476;8.484;2022-12-07T08:13:18;100681.16;;;7.20;72.96
12949;BME280;6539;49.476;8.484;2022-12-07T08:15:50;100679.50;;;7.12;73.27
12949;BME280;6539;49.476;8.484;2022-12-07T08:18:19;100682.59;;;7.07;73.55
12949;BME280;6539;49.476;8.484;2022-12-07T08:20:44;100683.06;;;7.16;73.19
12949;BME280;6539;49.476;8.484;2022-12-07T08:23:11;100685.03;;;7.16;73.05
12949;BME280;6539;49.476;8.484;2022-12-07T08:25:39;100678.00;;;7.18;73.60
12949;BME280;6539;49.476;8.484;2022-12-07T08:28:10;100684.31;;;7.22;73.68
12949;BME280;6539;49.476;8.484;2022-12-07T08:30:38;100684.25;;;7.19;73.30
12949;BME280;6539;49.476;8.484;2022-12-07T08:33:08;100676.47;;;7.21;72.91
12949;BME280;6539;49.476;8.484;2022-12-07T08:35:35;100680.78;;;7.22;72.65
12949;BME280;6539;49.476;8.484;2022-12-07T08:38:01;100678.00;;;7.18;72.09
12949;BME280;6539;49.476;8.484;2022-12-07T08:40:30;100680.00;;;7.21;72.03
12949;BME280;6539;49.476;8.484;2022-12-07T08:42:58;100681.94;;;7.21;72.17
12949;BME280;6539;49.476;8.484;2022-12-07T08:45:24;100685.13;;;7.26;71.97
12949;BME280;6539;49.476;8.484;2022-12-07T08:48:06;100687.09;;;7.29;71.54
12949;BME280;6539;49.476;8.484;2022-12-07T08:50:37;100684.25;;;7.19;72.04
12949;BME280;6539;49.476;8.484;2022-12-07T08:53:04;100677.66;;;7.20;72.06
12949;BME280;6539;49.476;8.484;2022-12-07T08:55:33;100684.31;;;7.22;71.99
12949;BME280;6539;49.476;8.484;2022-12-07T08:58:00;100682.03;;;7.31;71.81
12949;BME280;6539;49.476;8.484;2022-12-07T09:00:27;100678.16;;;7.32;71.68
12949;BME280;6539;49.476;8.484;2022-12-07T09:02:53;100683.22;;;7.30;71.62
12949;BME280;6539;49.476;8.484;2022-12-07T09:05:20;100685.13;;;7.26;71.69
12949;BME280;6539;49.476;8.484;2022-12-07T09:07:55;100676.94;;;7.30;71.99
12949;BME280;6539;49.476;8.484;2022-12-07T09:10:27;100680.06;;;7.28;72.22
12949;BME280;6539;49.476;8.484;2022-12-07T09:12:53;100679.31;;;7.31;72.09
12949;BME280;6539;49.476;8.484;2022-12-07T09:15:19;100681.28;;;7.34;72.10
12949;BME280;6539;49.476;8.484;2022-12-07T09:17:45;100686.75;;;7.34;71.97
12949;BME280;6539;49.476;8.484;2022-12-07T09:20:14;100678.16;;;7.36;72.21
12949;BME280;6539;49.476;8.484;2022-12-07T09:22:39;100678.16;;;7.32;72.07
12949;BME280;6539;49.476;8.484;2022-12-07T09:25:05;100678.56;;;7.34;72.38
12949;BME280;6539;49.476;8.484;2022-12-07T09:27:33;100685.97;;;7.34;72.95
12949;BME280;6539;49.476;8.484;2022-12-07T09:30:00;100676.66;;;7.42;72.40
12949;BME280;6539;49.476;8.484;2022-12-07T09:32:25;100682.13;;;7.42;72.37
12949;BME280;6539;49.476;8.484;2022-12-07T09:34:51;100690.78;;;7.47;72.48
12949;BME280;6539;49.476;8.484;2022-12-07T09:37:17;100687.66;;;7.49;71.96
12949;BME280;6539;49.476;8.484;2022-12-07T09:39:43;100688.84;;;7.51;71.76
12949;BME280;6539;49.476;8.484;2022-12-07T09:42:26;100685.25;;;7.40;71.76
12949;BME280;6539;49.476;8.484;2022-12-07T09:44:56;100690.69;;;7.40;72.05
12949;BME280;6539;49.476;8.484;2022-12-07T09:47:22;100674.31;;;7.40;72.70
12949;BME280;6539;49.476;8.484;2022-12-07T09:49:48;100685.59;;;7.35;72.24
12949;BME280;6539;49.476;8.484;2022-12-07T09:52:27;100683.28;;;7.37;72.18
12949;BME280;6539;49.476;8.484;2022-12-07T09:54:53;100674.31;;;7.40;72.45
12949;BME280;6539;49.476;8.484;2022-12-07T09:57:31;100674.06;;;7.56;72.10
12949;BME280;6539;49.476;8.484;2022-12-07T10:00:12;100672.53;;;7.58;70.99
12949;BME280;6539;49.476;8.484;2022-12-07T10:02:42;100676.81;;;7.56;71.29
12949;BME280;6539;49.476;8.484;2022-12-07T10:05:21;100672.16;;;7.60;71.53
12949;BME280;6539;49.476;8.484;2022-12-07T10:07:47;100670.22;;;7.64;71.60
12949;BME280;6539;49.476;8.484;2022-12-07T10:10:24;100665.94;;;7.66;71.64
12949;BME280;6539;49.476;8.484;2022-12-07T10:13:22;100665.63;;;7.75;71.96
12949;BME280;6539;49.476;8.484;2022-12-07T10:23:36;100659.16;;;8.01;71.46
12949;BME280;6539;49.476;8.484;2022-12-07T10:28:56;100645.91;;;8.03;71.41
12949;BME280;6539;49.476;8.484;2022-12-07T10:31:29;100640.44;;;8.03;71.08
12949;BME280;6539;49.476;8.484;2022-12-07T10:34:00;100640.47;;;8.10;70.75
12949;BME280;6539;49.476;8.484;2022-12-07T10:36:38;100638.13;;;8.12;69.66
12949;BME280;6539;49.476;8.484;2022-12-07T10:39:17;100642.03;;;8.11;69.38
12949;BME280;6539;49.476;8.484;2022-12-07T10:42:01;100643.63;;;8.15;69.06
12949;BME280;6539;49.476;8.484;2022-12-07T10:44:33;100644.44;;;8.19;68.74
12949;BME280;6539;49.476;8.484;2022-12-07T10:55:23;100628.78;;;8.16;69.38
12949;BME280;6539;49.476;8.484;2022-12-07T11:00:56;100630.34;;;8.14;68.87
12949;BME280;6539;49.476;8.484;2022-12-07T11:04:08;100630.38;;;8.21;69.01
12949;BME280;6539;49.476;8.484;2022-12-07T11:06:58;100623.72;;;8.22;68.79
12949;BME280;6539;49.476;8.484;2022-12-07T11:10:07;100622.66;;;8.30;68.70
12949;BME280;6539;49.476;8.484;2022-12-07T11:15:59;100613.28;;;8.38;67.34
12949;BME280;6539;49.476;8.484;2022-12-07T11:27:46;100601.94;;;8.32;67.24
12949;BME280;6539;49.476;8.484;2022-12-07T11:30:22;100601.53;;;8.30;66.43
12949;BME280;6539;49.476;8.484;2022-12-07T11:36:31;100596.94;;;8.56;66.10
12949;BME280;6539;49.476;8.484;2022-12-07T11:39:16;100589.50;;;8.56;66.33
12949;BME280;6539;49.476;8.484;2022-12-07T11:41:50;100588.34;;;8.57;66.31
12949;BME280;6539;49.476;8.484;2022-12-07T11:44:52;100583.63;;;8.54;65.55
12949;BME280;6539;49.476;8.484;2022-12-07T11:50:23;100577.78;;;8.45;65.59
12949;BME280;6539;49.476;8.484;2022-12-07T11:53:09;100575.78;;;8.45;65.57
12949;BME280;6539;49.476;8.484;2022-12-07T11:58:48;100575.06;;;8.56;65.42
12949;BME280;6539;49.476;8.484;2022-12-07T12:03:52;100561.03;;;8.75;65.58
12949;BME280;6539;49.476;8.484;2022-12-07T12:06:21;100574.31;;;8.83;64.61
12949;BME280;6539;49.476;8.484;2022-12-07T12:09:12;100559.47;;;8.91;64.20
12949;BME280;6539;49.476;8.484;2022-12-07T12:23:22;100555.97;;;8.94;62.25
12949;BME280;6539;49.476;8.484;2022-12-07T12:25:52;100547.72;;;8.91;61.93
12949;BME280;6539;49.476;8.484;2022-12-07T12:31:38;100540.28;;;8.70;62.08
12949;BME280;6539;49.476;8.484;2022-12-07T12:37:54;100542.63;;;8.61;61.86
12949;BME280;6539;49.476;8.484;2022-12-07T12:42:53;100544.16;;;8.55;62.06
12949;BME280;6539;49.476;8.484;2022-12-07T12:45:32;100543.00;;;8.49;62.49
12949;BME280;6539;49.476;8.484;2022-12-07T12:48:01;100535.53;;;8.46;62.41
12949;BME280;6539;49.476;8.484;2022-12-07T12:50:34;100539.84;;;8.47;62.51
12949;BME280;6539;49.476;8.484;2022-12-07T12:59:24;100532.84;;;8.53;62.43
12949;BME280;6539;49.476;8.484;2022-12-07T13:02:46;100532.03;;;8.49;62.43
12949;BME280;6539;49.476;8.484;2022-12-07T13:18:37;100514.03;;;8.41;61.50
12949;BME280;6539;49.476;8.484;2022-12-07T13:23:54;100508.56;;;8.37;61.31
12949;BME280;6539;49.476;8.484;2022-12-07T13:29:13;100509.34;;;8.34;61.35
12949;BME280;6539;49.476;8.484;2022-12-07T13:31:55;100504.66;;;8.35;61.98
12949;BME280;6539;49.476;8.484;2022-12-07T13:34:39;100494.09;;;8.37;61.88
12949;BME280;6539;49.476;8.484;2022-12-07T13:39:54;100493.69;;;8.35;61.94
12949;BME280;6539;49.476;8.484;2022-12-07T13:42:31;100483.19;;;8.40;61.58
12949;BME280;6539;49.476;8.484;2022-12-07T13:44:59;100490.22;;;8.49;61.13
12949;BME280;6539;49.476;8.484;2022-12-07T13:47:41;100488.66;;;8.51;60.92
12949;BME280;6539;49.476;8.484;2022-12-07T13:50:28;100485.91;;;8.55;60.93
12949;BME280;6539;49.476;8.484;2022-12-07T13:52:59;100488.25;;;8.56;60.86
12949;BME280;6539;49.476;8.484;2022-12-07T13:55:29;100492.97;;;8.59;61.21
12949;BME280;6539;49.476;8.484;2022-12-07T13:57:57;100484.38;;;8.64;60.83
12949;BME280;6539;49.476;8.484;2022-12-07T14:00:27;100483.97;;;8.66;60.50
12949;BME280;6539;49.476;8.484;2022-12-07T14:05:43;100480.47;;;8.58;61.08
12949;BME280;6539;49.476;8.484;2022-12-07T14:13:39;100489.81;;;8.50;61.85
12949;BME280;6539;49.476;8.484;2022-12-07T14:16:26;100486.69;;;8.48;61.57
12949;BME280;6539;49.476;8.484;2022-12-07T14:18:55;100495.31;;;8.47;61.99
12949;BME280;6539;49.476;8.484;2022-12-07T14:21:25;100484.75;;;8.45;62.00
12949;BME280;6539;49.476;8.484;2022-12-07T14:24:11;100481.59;;;8.39;62.46
12949;BME280;6539;49.476;8.484;2022-12-07T14:26:39;100487.50;;;8.45;62.93
12949;BME280;6539;49.476;8.484;2022-12-07T14:31:56;100491.00;;;8.49;63.33
12949;BME280;6539;49.476;8.484;2022-12-07T14:34:23;100496.06;;;8.40;63.76
12949;BME280;6539;49.476;8.484;2022-12-07T14:36:49;100494.09;;;8.37;63.79
12949;BME280;6539;49.476;8.484;2022-12-07T14:39:15;100492.94;;;8.38;64.58
12949;BME280;6539;49.476;8.484;2022-12-07T14:41:44;100492.16;;;8.41;65.13
12949;BME280;6539;49.476;8.484;2022-12-07T14:44:22;100489.81;;;8.36;65.26
12949;BME280;6539;49.476;8.484;2022-12-07T14:46:49;100480.44;;;8.30;64.66
12949;BME280;6539;49.476;8.484;2022-12-07T14:49:19;100478.44;;;8.30;64.32
12949;BME280;6539;49.476;8.484;2022-12-07T14:51:46;100475.31;;;8.28;64.55
12949;BME280;6539;49.476;8.484;2022-12-07T14:54:20;100482.72;;;8.24;64.62
12949;BME280;6539;49.476;8.484;2022-12-07T14:56:50;100474.50;;;8.24;64.85
12949;BME280;6539;49.476;8.484;2022-12-07T14:59:18;100471.03;;;8.31;64.24
12949;BME280;6539;49.476;8.484;2022-12-07T15:01:47;100474.94;;;8.26;63.73
12949;BME280;6539;49.476;8.484;2022-12-07T15:04:12;100478.06;;;8.28;63.79
12949;BME280;6539;49.476;8.484;2022-12-07T15:06:38;100471.81;;;8.28;64.13
12949;BME280;6539;49.476;8.484;2022-12-07T15:09:05;100478.06;;;8.28;64.28
12949;BME280;6539;49.476;8.484;2022-12-07T15:11:30;100472.63;;;8.32;64.41
12949;BME280;6539;49.476;8.484;2022-12-07T15:14:01;100473.00;;;8.34;64.50
12949;BME280;6539;49.476;8.484;2022-12-07T15:16:42;100468.69;;;8.33;63.97
12949;BME280;6539;49.476;8.484;2022-12-07T15:19:18;100465.59;;;8.34;63.61
12949;BME280;6539;49.476;8.484;2022-12-07T15:21:47;100468.66;;;8.26;63.83
12949;BME280;6539;49.476;8.484;2022-12-07T15:24:13;100460.88;;;8.31;63.92
12949;BME280;6539;49.476;8.484;2022-12-07T15:26:40;100463.19;;;8.26;63.67
12949;BME280;6539;49.476;8.484;2022-12-07T15:29:10;100467.84;;;8.22;64.23
12949;BME280;6539;49.476;8.484;2022-12-07T15:31:36;100467.47;;;8.16;64.22
12949;BME280;6539;49.476;8.484;2022-12-07T15:34:04;100467.47;;;8.16;64.30
12949;BME280;6539;49.476;8.484;2022-12-07T15:36:33;100458.47;;;8.16;64.66
12949;BME280;6539;49.476;8.484;2022-12-07T15:39:00;100459.25;;;8.20;64.44
12949;BME280;6539;49.476;8.484;2022-12-07T15:41:26;100469.03;;;8.21;64.14
12949;BME280;6539;49.476;8.484;2022-12-07T15:43:56;100460.81;;;8.14;63.96
12949;BME280;6539;49.476;8.484;2022-12-07T15:46:41;100465.50;;;8.10;63.69
12949;BME280;6539;49.476;8.484;2022-12-07T15:49:17;100454.56;;;8.10;63.40
12949;BME280;6539;49.476;8.484;2022-12-07T15:51:48;100452.59;;;8.03;63.23
12949;BME280;6539;49.476;8.484;2022-12-07T15:54:24;100458.06;;;8.03;63.56
12949;BME280;6539;49.476;8.484;2022-12-07T15:56:56;100444.78;;;8.05;63.66